Terminal Aerodrome Forecast
Issued by NWS Missoula, MT

Home | Current Version | Previous Version | Text Only | Print | Product List | Glossary On
Versions: 1 2 3 4 5 6 7 8 9 10 11 12 13 14 15 16 17 18 19 20
000
FTUS45 KMSO 300537
TAFMSO
TAF
KMSO 300537Z 3006/3106 33009KT 5SM FU VCSH BKN050 BKN100
     FM301700 28011G20KT 6SM FU VCSH BKN080
     FM301900 28014G28KT P6SM -SHRA VCTS SCT050CB OVC060
     FM302200 30018G28KT 6SM -SHRA FU BKN050 BKN080
     FM310300 28008KT 6SM FU OVC050=

USA.gov is the U.S. government's official web portal to all federal, state and local government web resources and services.